Latest Weather Observations for Cape Otway

IDV60801

Issued at 6:02 pm EST Sunday 26 June 2016 (issued every 30 minutes, with the page automatically refreshed every 10 minutes)

About weather observations | Map of weather stations | Latest weather observations for VIC | Other Formats
Station Details ID: 090015 Name: CAPE OTWAY LIGHTHOUSE Lat: -38.86 Lon: 143.51 Height: 82.0 m
Data from the previous 72 hours. | See also: Recent months at Cape Otway
Date/Time
EST
Temp
°C
App
Temp
°C
Dew
Point
°C
Rel
Hum
%
Delta-T
°C
Wind Press
QNH
hPa
Press
MSL
hPa
Rain since
9am
mm
Dir  Spd
km/h
Gust
km/h
Spd
kts
Gust
kts
26/06:00pm 8.6 3.6 3.4 70 2.2 NNW 19 28 10 15 1014.7 1014.8 0.0
26/05:30pm 8.7 4.1 3.7 71 2.2 NNW 17 24 9 13 1014.5 - 0.0
26/05:00pm 9.2 5.4 4.0 70 2.3 NNW 13 19 7 10 1014.4 - 0.0
26/04:30pm 10.3 6.2 4.2 66 2.7 NNW 15 22 8 12 1014.3 - 0.0
26/04:00pm 10.6 5.5 4.1 64 2.9 NW 20 30 11 16 1014.3 - 0.0
26/03:30pm 10.9 5.8 3.9 62 3.1 NNW 20 32 11 17 1014.5 - 0.0
26/03:00pm 11.2 6.3 4.0 61 3.2 NW 19 33 10 18 1014.7 1014.8 0.0
26/02:30pm 11.0 5.8 3.5 60 3.3 NNW 20 33 11 18 1015.1 - 0.0
26/02:00pm 10.8 4.8 3.6 61 3.2 N 24 37 13 20 1015.2 - 0.0
26/01:30pm 10.8 4.8 3.4 60 3.3 NNW 24 39 13 21 1015.4 - 0.0
26/01:00pm 10.4 4.3 2.7 59 3.3 NNW 24 39 13 21 1015.8 - 0.0
26/12:30pm 10.5 4.3 2.4 57 3.5 NNW 24 39 13 21 1016.0 - 0.0
26/12:00pm 10.0 4.2 2.4 59 3.2 NW 22 33 12 18 1016.5 1016.6 0.0
26/11:30am 9.9 5.6 3.2 63 2.9 NW 15 24 8 13 1017.3 - 0.0
26/11:00am 9.5 4.8 3.0 64 2.8 NNW 17 24 9 13 1017.7 - 0.0
26/10:30am 9.0 5.0 2.8 65 2.6 NNW 13 22 7 12 1018.2 - 0.0
26/10:00am 8.9 5.3 2.7 65 2.6 NNW 11 19 6 10 1018.4 - 0.0
26/09:30am 8.3 4.3 2.8 68 2.3 NNW 13 20 7 11 1018.7 - 0.0
26/09:00am 7.7 4.6 3.4 74 1.8 NNW 9 13 5 7 1018.9 1019.0 0.4
26/08:30am 5.9 2.6 2.2 77 1.5 N 9 13 5 7 1019.0 - 0.4
26/08:00am 5.2 1.4 1.7 78 1.4 N 11 15 6 8 1018.9 - 0.4
26/07:30am 5.6 1.4 1.9 77 1.5 NNW 13 17 7 9 1019.0 - 0.4
26/07:00am 6.5 2.0 2.2 74 1.8 NNW 15 20 8 11 1018.9 - 0.4
26/06:30am 6.6 2.2 2.5 75 1.7 NW 15 22 8 12 1018.8 - 0.4
26/06:00am 6.7 2.3 2.8 76 1.6 NW 15 20 8 11 1018.8 1018.9 0.4
26/05:30am 6.7 2.4 3.1 78 1.5 NW 15 22 8 12 1018.8 - 0.4
26/05:00am 6.5 2.2 3.3 80 1.3 NW 15 22 8 12 1018.8 - 0.4
26/04:30am 6.5 2.6 3.3 80 1.3 NNW 13 19 7 10 1018.9 - 0.4
26/04:00am 6.5 1.4 3.1 79 1.4 NNW 19 22 10 12 1018.9 - 0.4
26/03:30am 6.9 1.2 3.0 76 1.6 NNW 22 30 12 16 1019.3 - 0.4
26/03:00am 7.2 1.9 3.1 75 1.7 NNW 20 28 11 15 1019.7 1019.8 0.4
26/02:30am 7.3 2.2 3.2 75 1.7 NNW 19 24 10 13 1020.1 - 0.4
26/02:00am 7.3 2.3 3.4 76 1.7 NNW 19 22 10 12 1020.0 - 0.4
26/01:30am 7.3 2.1 3.7 78 1.5 NNW 20 24 11 13 1020.0 - 0.4
26/01:00am 7.3 2.3 3.7 78 1.5 NNW 19 24 10 13 1020.3 - 0.4
26/12:30am 7.3 2.3 3.7 78 1.5 NNW 19 22 10 12 1020.7 - 0.4
26/12:00am 7.6 2.5 4.0 78 1.6 NNW 20 24 11 13 1020.7 1020.8 0.4
 
Date/Time
EST
Temp
°C
App
Temp
°C
Dew
Point
°C
Rel
Hum
%
Delta-T
°C
Wind Press
QNH
hPa
Press
MSL
hPa
Rain since
9am
mm
Dir  Spd
km/h
Gust
km/h
Spd
kts
Gust
kts
25/11:30pm 7.8 2.9 4.2 78 1.6 NNW 19 24 10 13 1020.7 - 0.4
25/11:00pm 7.8 2.8 4.4 79 1.5 NNW 20 24 11 13 1020.9 - 0.4
25/10:30pm 7.7 3.2 4.3 79 1.5 NNW 17 22 9 12 1021.1 - 0.4
25/10:00pm 7.8 3.4 4.6 80 1.4 NW 17 20 9 11 1021.3 - 0.4
25/09:30pm 8.0 4.0 4.9 81 1.4 NW 15 20 8 11 1021.3 - 0.4
25/09:00pm 8.0 3.6 4.9 81 1.4 NNW 17 20 9 11 1021.4 1021.5 0.4
25/08:30pm 8.2 3.9 5.3 82 1.3 NW 17 22 9 12 1021.5 - 0.4
25/08:00pm 8.1 3.5 5.4 83 1.2 NNW 19 24 10 13 1021.5 - 0.4
25/07:30pm 8.2 4.0 5.7 84 1.1 NNW 17 20 9 11 1021.6 - 0.4
25/07:00pm 8.4 4.2 5.9 84 1.1 NNW 17 20 9 11 1021.7 - 0.4
25/06:30pm 8.8 5.1 6.1 83 1.2 NNW 15 19 8 10 1021.7 - 0.4
25/06:00pm 9.9 5.6 7.0 82 1.4 NW 19 24 10 13 1021.7 1021.8 0.4
25/05:30pm 10.3 6.0 6.8 79 1.7 NW 19 26 10 14 1021.6 - 0.2
25/05:00pm 10.7 6.2 6.8 77 1.9 WNW 20 30 11 16 1021.5 - 0.2
25/04:30pm 10.8 5.5 6.9 77 1.9 WNW 24 32 13 17 1021.5 - 0.2
25/04:00pm 11.5 6.6 7.0 74 2.2 WNW 22 32 12 17 1021.4 - 0.2
25/03:30pm 11.7 6.3 6.2 69 2.6 W 24 32 13 17 1021.5 - 0.2
25/03:00pm 12.4 7.7 6.2 66 2.9 NW 20 28 11 15 1021.5 1021.6 0.2
25/02:30pm 12.3 8.0 6.8 69 2.6 NW 19 28 10 15 1021.7 - 0.2
25/02:00pm 12.2 7.9 6.9 70 2.5 WNW 19 26 10 14 1021.7 - 0.2
25/01:30pm 11.9 7.0 6.8 71 2.4 WNW 22 30 12 16 1021.8 - 0.2
25/01:00pm 11.7 7.1 6.4 70 2.5 WNW 20 30 11 16 1022.0 - 0.2
25/12:30pm 11.9 7.3 5.8 66 2.9 W 19 28 10 15 1022.1 - 0.2
25/12:00pm 11.9 7.3 5.5 65 3.0 W 19 26 10 14 1022.2 1022.3 0.2
25/11:30am 11.9 7.4 6.0 67 2.8 WSW 19 28 10 15 1022.5 - 0.2
25/11:00am 11.5 6.3 5.4 66 2.8 WSW 22 28 12 15 1022.7 - 0.2
25/10:30am 11.1 6.7 6.5 73 2.2 WSW 19 28 10 15 1022.6 - 0.2
25/10:00am 10.6 8.2 6.9 78 1.8 WNW 9 11 5 6 1022.5 - 0.2
25/09:30am 9.5 6.2 6.4 81 1.4 WSW 13 19 7 10 1022.3 - 0.2
25/09:00am 9.7 2.7 6.1 78 1.7 SW 32 41 17 22 1021.9 1022.0 1.8
25/08:59am 10.0 2.9 6.3 78 1.7 SW 33 41 18 22 1021.9 - 1.8
25/08:30am 8.3 6.0 4.7 78 1.6 WNW 6 9 3 5 1021.7 - 1.8
25/08:00am 9.4 5.8 5.0 74 2.0 SW 13 20 7 11 1021.6 - 1.8
25/07:30am 10.0 5.2 4.4 68 2.5 SW 19 26 10 14 1021.2 - 1.6
25/07:00am 10.0 3.4 4.2 67 2.6 SW 28 37 15 20 1021.0 - 1.6
25/06:30am 10.5 4.3 2.4 57 3.5 SSW 24 37 13 20 1020.6 - 1.6
25/06:00am 10.2 2.8 1.8 56 3.5 SW 30 41 16 22 1020.5 1020.6 1.6
25/05:30am 10.4 2.8 2.7 59 3.3 SW 32 44 17 24 1020.1 - 1.6
25/05:00am 10.1 2.3 2.0 57 3.4 SW 32 43 17 23 1019.8 - 1.6
25/04:30am 9.8 2.2 2.9 62 3.0 SW 32 43 17 23 1019.6 - 1.6
25/04:00am 9.9 2.1 1.5 56 3.5 SW 32 46 17 25 1019.4 - 1.6
25/03:30am 9.7 2.6 3.7 66 2.6 SW 30 41 16 22 1019.2 - 1.6
25/03:00am 9.2 1.7 4.4 72 2.1 SW 33 52 18 28 1019.2 1019.3 1.6
25/02:59am 9.0 1.0 4.0 71 2.2 SW 35 54 19 29 1019.2 - 1.6
25/02:41am 8.6 -0.2 3.8 72 2.1 SSW 39 52 21 28 1019.0 - 1.6
25/02:33am 8.2 1.4 3.3 71 2.1 WSW 28 46 15 25 1019.2 - 1.4
25/02:30am 8.1 0.5 3.0 70 2.2 WSW 32 46 17 25 1019.1 - 1.4
25/02:25am 8.9 0.5 3.7 70 2.3 WSW 37 46 20 25 1019.0 - 1.4
25/02:00am 9.2 2.4 3.2 66 2.6 SSW 28 39 15 21 1018.5 - 1.4
25/01:30am 8.3 0.6 3.4 71 2.1 SSW 33 44 18 24 1018.4 - 1.4
25/01:06am 8.8 1.3 3.6 70 2.3 WSW 32 52 17 28 1018.4 - 1.2
25/01:00am 8.3 0.7 2.8 68 2.3 SW 32 63 17 34 1018.3 - 1.0
25/12:54am 9.0 -2.3 3.6 69 2.3 SW 52 70 28 38 1018.1 - 1.0
25/12:50am 9.2 -3.0 3.6 68 2.4 SW 57 70 31 38 1017.9 - 1.0
25/12:30am 9.4 1.3 3.2 65 2.7 SSW 35 54 19 29 1017.6 - 1.0
25/12:26am 9.6 1.9 3.4 65 2.7 SSW 33 54 18 29 1017.5 - 1.0
25/12:21am 9.3 2.6 3.9 69 2.4 SSW 28 39 15 21 1017.5 - 1.0
25/12:08am 8.3 -0.2 3.4 71 2.1 W 37 63 20 34 1017.7 - 1.0
25/12:04am 8.3 -1.0 3.2 70 2.2 W 41 63 22 34 1017.5 - 1.0
25/12:02am 9.1 -0.1 3.7 69 2.4 SW 41 63 22 34 1017.5 - 1.0
25/12:00am 9.7 1.0 4.1 68 2.5 SW 39 52 21 28 1017.5 1017.6 1.0
 
Date/Time
EST
Temp
°C
App
Temp
°C
Dew
Point
°C
Rel
Hum
%
Delta-T
°C
Wind Press
QNH
hPa
Press
MSL
hPa
Rain since
9am
mm
Dir  Spd
km/h
Gust
km/h
Spd
kts
Gust
kts
24/11:39pm 9.6 1.4 2.9 63 2.9 SSW 35 54 19 29 1017.2 - 1.0
24/11:30pm 9.5 0.9 2.8 63 2.9 SSW 37 52 20 28 1017.1 - 1.0
24/11:00pm 9.3 1.0 1.9 60 3.1 SW 35 57 19 31 1016.7 - 1.0
24/10:54pm 9.2 2.3 4.4 72 2.1 SW 30 48 16 26 1016.8 - 1.0
24/10:30pm 8.6 2.3 3.8 72 2.1 SSW 26 39 14 21 1016.9 - 1.0
24/10:05pm 9.6 -0.4 2.0 59 3.2 SW 44 63 24 34 1016.4 - 1.0
24/10:00pm 9.5 -0.3 2.1 60 3.1 SW 43 57 23 31 1016.4 - 1.0
24/09:30pm 9.6 0.2 2.5 61 3.0 SW 41 63 22 34 1015.7 - 1.0
24/09:03pm 9.4 1.3 3.4 66 2.6 WSW 35 59 19 32 1015.3 - 1.0
24/09:00pm 9.0 0.4 2.8 65 2.6 WSW 37 52 20 28 1015.5 1015.7 1.0
24/08:32pm 9.3 -0.5 3.3 66 2.6 SW 44 63 24 34 1014.9 - 1.0
24/08:30pm 9.7 -0.7 2.1 59 3.2 SW 46 63 25 34 1014.9 - 1.0
24/08:22pm 9.5 0.0 1.7 58 3.3 SW 41 59 22 32 1014.7 - 1.0
24/08:00pm 9.4 -0.9 2.7 63 2.9 SW 46 61 25 33 1014.2 - 1.0
24/07:30pm 9.7 -0.7 2.1 59 3.2 SW 46 67 25 36 1013.7 - 1.0
24/07:00pm 8.3 -0.8 1.7 63 2.7 WSW 39 63 21 34 1013.3 - 1.0
24/06:50pm 8.3 -2.8 2.5 67 2.4 SW 50 72 27 39 1012.9 - 1.0
24/06:30pm 9.1 -1.9 0.8 56 3.4 SW 48 61 26 33 1012.5 - 1.0
24/06:00pm 9.0 -2.6 1.7 60 3.0 SW 52 65 28 35 1011.7 1011.8 1.0
24/05:40pm 8.6 -3.3 2.2 64 2.7 SW 54 91 29 49 1011.1 - 1.0
24/05:31pm 9.0 -1.9 1.2 58 3.2 SW 48 69 26 37 1011.0 - 1.0
24/05:30pm 9.0 -1.5 1.2 58 3.2 SW 46 63 25 34 1011.0 - 1.0
24/05:26pm 8.8 -1.2 2.2 63 2.8 SW 44 63 24 34 1010.9 - 1.0
24/05:16pm 8.1 -2.3 2.1 66 2.5 SW 46 76 25 41 1010.8 - 1.0
24/05:05pm 8.9 -5.2 3.5 69 2.3 SW 67 85 36 46 1010.3 - 1.0
24/05:04pm 9.0 -5.6 3.2 67 2.5 SW 69 85 37 46 1010.2 - 1.0
24/05:03pm 8.9 -1.5 2.3 63 2.8 SW 46 85 25 46 1010.2 - 1.0
24/05:01pm 9.0 -0.9 1.7 60 3.0 WSW 43 65 23 35 1010.3 - 1.0
24/05:00pm 9.0 -0.4 2.1 62 2.9 WSW 41 57 22 31 1010.3 - 1.0
24/04:48pm 8.4 -4.1 2.0 64 2.7 SW 57 76 31 41 1010.1 - 1.0
24/04:46pm 8.3 -5.4 1.5 62 2.8 SW 63 76 34 41 1010.0 - 1.0
24/04:44pm 8.3 0.6 3.2 70 2.2 SW 33 63 18 34 1010.1 - 1.0
24/04:42pm 8.0 0.8 3.1 71 2.1 SW 30 44 16 24 1010.2 - 1.0
24/04:30pm 7.4 -1.3 2.3 70 2.1 SSW 37 54 20 29 1010.0 - 1.0
24/04:23pm 7.4 -3.0 2.3 70 2.1 SSW 46 65 25 35 1009.7 - 1.0
24/04:00pm 8.2 -3.2 2.7 68 2.3 SW 52 74 28 40 1009.1 - 1.0
24/03:30pm 8.7 -3.2 2.1 63 2.8 SW 54 72 29 39 1008.3 - 1.0
24/03:16pm 8.5 -3.4 2.1 64 2.7 SW 54 72 29 39 1008.0 - 1.0
24/03:09pm 8.7 -4.2 2.1 63 2.8 SW 59 70 32 38 1007.7 - 1.0
24/03:01pm 8.5 -0.2 2.3 65 2.6 WSW 37 56 20 30 1007.8 - 1.0
24/03:00pm 8.5 -0.1 2.7 67 2.5 WSW 37 65 20 35 1007.8 1007.9 1.0
24/02:54pm 8.1 -0.5 2.4 67 2.4 WSW 37 82 20 44 1007.9 - 1.0
24/02:47pm 8.9 -4.9 1.3 59 3.1 SW 63 82 34 44 1007.3 - 0.8
24/02:30pm 8.7 0.0 2.1 63 2.8 WSW 37 57 20 31 1007.1 - 0.8
24/02:29pm 8.6 -0.1 2.2 64 2.7 WSW 37 56 20 30 1007.1 - 0.8
24/02:17pm 8.4 -0.2 2.6 67 2.4 SW 37 48 20 26 1007.1 - 0.8
24/02:00pm 8.6 1.0 2.6 66 2.5 W 32 46 17 25 1007.0 - 0.8
24/01:30pm 7.0 1.0 3.1 76 1.6 WSW 24 35 13 19 1007.0 - 0.8
24/01:00pm 7.1 -3.5 3.0 75 1.7 WSW 48 72 26 39 1006.4 - 0.8
24/12:42pm 7.8 -5.3 3.1 72 2.0 SW 61 80 33 43 1005.8 - 0.8
24/12:40pm 7.9 -4.5 2.8 70 2.2 SW 57 72 31 39 1005.9 - 0.8
24/12:30pm 9.0 -0.6 3.6 69 2.3 WSW 43 61 23 33 1005.8 - 0.6
24/12:00pm 7.9 -1.3 3.6 74 1.9 WSW 41 59 22 32 1005.2 1005.3 0.6
24/11:39am 7.5 -3.3 3.9 78 1.6 WSW 50 69 27 37 1005.1 - 0.6
24/11:31am 6.5 -3.3 3.1 79 1.4 SSW 44 76 24 41 1005.3 - 0.4
24/11:30am 6.3 -4.0 2.9 79 1.4 SSW 46 76 25 41 1005.2 - 0.4
24/11:26am 6.5 -4.8 3.5 81 1.3 SSW 52 89 28 48 1005.3 - 0.4
24/11:01am 8.4 -6.7 3.3 70 2.2 SW 72 96 39 52 1003.6 - 0.2
24/11:00am 9.1 -0.7 3.5 68 2.4 SW 44 83 24 45 1003.7 - 0.2
24/10:30am 9.0 -0.8 2.3 63 2.8 SW 43 61 23 33 1003.4 - 0.2
24/10:25am 8.7 -0.6 2.7 66 2.5 SW 41 61 22 33 1003.4 - 0.2
24/10:09am 8.0 -0.6 4.8 80 1.4 SW 39 48 21 26 1003.1 - 0.2
24/10:00am 7.1 3.1 4.8 85 1.0 WSW 15 28 8 15 1002.9 - 0.2
24/09:30am 6.6 1.8 4.4 86 1.0 W 19 28 10 15 1002.6 - 0.0
24/09:00am 5.6 -2.3 4.1 90 0.6 SSW 35 46 19 25 1002.3 1002.4 28.8
24/08:50am 5.1 -2.9 3.6 90 0.6 SSW 35 82 19 44 1002.3 - 28.8
24/08:44am 6.2 -3.2 4.5 89 0.7 WSW 43 65 23 35 1002.3 - 28.2
24/08:43am 6.2 -2.8 4.5 89 0.7 WSW 41 56 22 30 1002.4 - 28.2
24/08:41am 6.1 -0.5 4.4 89 0.7 WNW 28 56 15 30 1002.2 - 28.2
24/08:30am 5.5 -0.4 3.8 89 0.7 WNW 24 39 13 21 1001.8 - 28.0
24/08:17am 5.5 -2.1 4.0 90 0.6 W 33 67 18 36 1001.6 - 27.6
24/08:00am 5.6 -6.9 4.2 91 0.6 SW 59 82 32 44 1001.0 - 26.8
24/07:47am 6.0 -7.6 4.5 90 0.6 SW 65 89 35 48 1000.3 - 26.6
24/07:45am 5.6 -2.7 4.1 90 0.6 WSW 37 61 20 33 1000.3 - 26.4
24/07:30am 5.3 -1.0 3.6 89 0.7 NNW 26 41 14 22 999.9 - 22.6
24/07:00am 4.9 -2.3 3.2 89 0.7 NNW 30 43 16 23 999.0 - 21.8
24/06:30am 5.0 -1.4 3.3 89 0.7 NNW 26 37 14 20 999.2 - 21.8
24/06:00am 4.7 -0.6 3.2 90 0.6 NNW 20 28 11 15 999.2 999.3 21.4
24/05:30am 4.9 -1.8 3.4 90 0.6 NNW 28 37 15 20 998.2 - 21.0
24/05:05am 6.2 -0.7 4.7 90 0.7 NW 30 48 16 26 998.3 - 20.4
24/05:00am 6.1 0.3 4.6 90 0.6 NW 24 43 13 23 998.4 - 20.4
24/04:30am 5.3 -0.2 3.8 90 0.6 NNW 22 28 12 15 998.1 - 19.8
24/04:00am 5.6 0.5 4.1 90 0.6 NNW 20 35 11 19 997.5 - 19.8
24/03:30am 6.0 0.2 4.2 88 0.8 NNW 24 39 13 21 997.8 - 19.8
24/03:10am 6.3 -0.6 4.6 89 0.7 W 30 48 16 26 998.1 - 19.6
24/03:00am 6.4 -1.4 4.7 89 0.7 W 35 59 19 32 998.3 998.4 19.4
24/02:47am 6.5 -4.9 4.8 89 0.7 W 54 72 29 39 998.0 - 19.2
24/02:46am 6.6 -5.2 4.9 89 0.7 W 56 72 30 39 998.0 - 19.2
24/02:41am 6.9 -0.5 5.2 89 0.8 W 33 56 18 30 998.2 - 19.0
24/02:30am 6.4 -1.1 4.7 89 0.7 W 33 48 18 26 998.4 - 18.4
24/02:05am 7.3 -1.3 4.9 85 1.1 W 39 59 21 32 998.2 - 16.2
24/02:04am 7.5 0.1 5.1 85 1.1 WNW 33 59 18 32 998.1 - 16.2
24/02:00am 7.2 0.0 4.9 85 1.0 NW 32 46 17 25 997.9 - 16.2
24/01:48am 7.1 0.6 4.9 86 1.0 NW 28 46 15 25 997.7 - 16.2
24/01:30am 6.5 1.5 4.5 87 0.9 NW 20 32 11 17 997.5 - 16.2
24/01:00am 6.1 0.2 4.1 87 0.9 NNW 24 35 13 19 997.2 - 16.2
24/12:30am 5.9 0.8 4.1 88 0.8 NNW 20 32 11 17 997.2 - 16.2
24/12:00am 6.1 1.0 4.3 88 0.8 NNW 20 30 11 16 997.6 997.7 16.2
 
Date/Time
EST
Temp
°C
App
Temp
°C
Dew
Point
°C
Rel
Hum
%
Delta-T
°C
Wind Press
QNH
hPa
Press
MSL
hPa
Rain since
9am
mm
Dir  Spd
km/h
Gust
km/h
Spd
kts
Gust
kts
23/11:30pm 5.7 0.6 4.0 89 0.7 NNW 20 26 11 14 997.9 - 16.2
23/11:00pm 5.7 0.2 4.0 89 0.7 NNW 22 30 12 16 997.2 - 16.2
23/10:30pm 6.0 0.2 4.3 89 0.7 NNW 24 32 13 17 997.6 - 16.2
23/10:00pm 6.1 0.7 4.6 90 0.6 NNW 22 32 12 17 997.3 - 16.2
23/09:30pm 6.1 0.7 4.6 90 0.6 NNW 22 30 12 16 997.7 - 16.2
23/09:00pm 7.2 2.4 5.7 90 0.7 NW 20 37 11 20 998.1 998.2 16.2
23/08:30pm 6.5 2.1 5.0 90 0.7 NNW 17 26 9 14 997.6 - 15.4
23/08:00pm 7.0 2.3 5.3 89 0.8 NW 19 28 10 15 997.5 - 15.4
23/07:30pm 6.9 1.3 5.5 91 0.6 WNW 24 41 13 22 997.8 - 15.4
23/07:00pm 5.9 -3.5 4.5 91 0.6 W 43 65 23 35 998.0 - 14.4
23/06:56pm 8.3 1.0 7.1 92 0.6 WNW 35 59 19 32 997.7 - 13.4
23/06:30pm 7.5 2.1 6.3 92 0.5 NNW 24 33 13 18 997.1 - 13.2

Other Formats:

Comma delimited format used in spreadsheet applications
http://www.bom.gov.au/fwo/IDV60801/IDV60801.94842.axf

JavaScript Object Notation format (JSON) in row-major order
http://www.bom.gov.au/fwo/IDV60801/IDV60801.94842.json